Ride Results

Sofala (19-03-1989)
Ride distance: 80.0 km

Outcomes - Sofala (19-03-1989)
Division No. of Entries Retired / DNE Completed Withdrawn Ineligible V/O Percentage Completed
HW 22 - 9 2 - 11 40.91%
MW 28 - 13 - - 15 46.43%
LW 9 - 6 - - 3 66.67%
JN 6 - 5 - - 1 83.33%
Totals 65 - 33 2 - 30 50.77%
Results - Sofala (19-03-1989)
No. Rider Horse Place Time Leg Speeds Total
Km/Hr
H/R bpm
Heavyweight
2626 Robert Ward Hawkesbury Impala 1 5:50:00 13.1, 14.3 13.71 30, 37, 49 (Avg:43)
2627 Bern Harvey Feu D'or 2 6:09:00 13.8, 12.2 13.01 36, 38, 53 (Avg:45)
2641 Peter Cole Chip Chase Sadaqa 3 6:55:00 11.8, 11.3 11.57 32, 41, 48 (Avg:44)
2642 Kevin Estens Bundy 4 7:34:00 11.8, 9.5 10.57 38, 40, 46 (Avg:43)
2637 Steve Finnane Glenallan Zared 4 7:34:00 11.4, 9.8 10.57 36, 45, 59 (Avg:52)
2635 David Larnach Mayfair Don Juan 6 7:54:00 11.2, 9.2 10.13 32, 48, 50 (Avg:49)
2632 George Anderson Lindy 7 8:22:00 10.3, 8.9 9.56 29, 40, 42 (Avg:41)
2633 Andrew Jonkers Belimba Park Simonette 7 8:22:00 10.3, 8.9 9.56 37, 41, 47 (Avg:44)
2631 Lindsay Brown Iona Benny 9 8:44:00 9.5, 8.8 9.16 40, 39, 57 (Avg:48)
197 Vince Jones Bullet Heart Rate L2 0:00:00 12.2, 9.4 - 31, 44, 80 (Avg:62)
193 Ross McKay Smurf Queen Heart Rate L2 0:00:00 11.2, 9.7 - 34, 47, 68 (Avg:57)
191 Warren Palmer Windsor Park Dominator Heart Rate L2 0:00:00 11.7, 11.3 - 36, 47, 79 (Avg:63)
182 Andrew Bailey Dora Heart Rate L1 0:00:00 14.5 - 48, 58 (Avg:58)
199 Don Boland Blue Bead Brite Lame L1 0:00:00 10.1 - 36, 41 (Avg:41)
195 Helen Cameron Korella Shariff Heart Rate L1 0:00:00 17.9 - 37, 63 (Avg:63)
179 Norm Drury Kadisha Howa Withdrawn L1 0:00:00 - - 42, 55 (Avg:55)
3 Kim Harvey Nunyara Heart Rate L1 0:00:00 11.3 - 36, 60 (Avg:60)
194 Michael Harvey Ciscos Sagittarian Withdrawn L1 0:00:00 - - 32, 50 (Avg:50)
198 Geoff Pike Chiquitor Lame L1 0:00:00 13.8 - 39, 49 (Avg:49)
187 Sonnie Sandford Myall Silver Dollar Heart Rate L1 0:00:00 17.2 - 48, 70 (Avg:70)
180 Kevin Watts Berida Frosty Lame L1 0:00:00 11.8 - 27, 53 (Avg:53)
188 Stephen Zonneveld Sairdi Phaezon Heart Rate L1 0:00:00 11.4 - 46, 60 (Avg:60)
Middleweight
2621 Sharie Slattery Chip Chase Ramadan 1 4:46:00 18.1, 15.5 16.78 36, 50, 56 (Avg:53)
15 Lorraine Howarth Peppersfield Maestro 2 5:04:00 17.9, 14.1 15.79 34, 50, 48 (Avg:49)
2623 Eric Robertson Matta Mia Ishab 3 5:05:00 17.0, 14.6 15.74 29, 40, 47 (Avg:43)
2624 Howard Harris Franklin Edmund 4 5:33:00 17.9, 12.0 14.41 34, 51, 59 (Avg:55)
2625 Peter Casburn Tallywood Randy 5 5:42:00 13.9, 14.1 14.04 32, 43, 59 (Avg:51)
2630 Stuart Priest Pharoah 6 5:51:00 13.0, 14.3 13.68 30, 45, 57 (Avg:51)
2629 Geoff Hurt Jindalee James 7 5:54:00 15.5, 11.9 13.56 34, 40, 52 (Avg:46)
2628 Damien Bonham Bow 8 5:56:00 13.8, 13.1 13.48 36, 43, 58 (Avg:50)
2640 Julie Baird Faraway Vivien 9 6:56:00 11.8, 11.2 11.54 34, 42, 48 (Avg:45)
2638 Warren Linton Cudglebar Rafyk 10 7:10:00 11.5, 10.7 11.16 38, 42, 54 (Avg:48)
2639 Joann Linton Cudglebar Gadara 10 7:10:00 11.5, 10.7 11.16 36, 51, 50 (Avg:50)
2636 Dennis White Jasali Sultan 12 7:49:00 11.9, 8.9 10.23 40, 53, 59 (Avg:56)
2634 John Larnach Mayfair Baz 13 7:54:00 11.2, 9.2 10.13 40, 42, 56 (Avg:49)
18 Peter Bonham Iditerod Shalom Lame L2 0:00:00 12.9, 11.2 - 32, 52, 59 (Avg:55)
2622 Kristianne Kalen Dynasty De Month Heart Rate L2 0:00:00 11.4, 8.1 - 34, 47, 65 (Avg:56)
11 Cathy Macken Mindari Taman Heart Rate L2 0:00:00 11.7, 7.9 - 35, 50, 61 (Avg:55)
20 Ken Sandford Myall Sundowner Heart Rate L2 0:00:00 17.6, 14.1 - 34, 47, 66 (Avg:56)
192 Gloria Thorpe Lady Heart Rate L2 0:00:00 11.2, 9.7 - 34, 46, 70 (Avg:58)
8 Betty Cowdery Larntainey Trinity Heart Rate L1 0:00:00 8.3 - 36, 62 (Avg:62)
162 Mark Freeman Cedar Ridge Rob Roy Heart Rate L1 0:00:00 16.5 - 38, 68 (Avg:68)
6 Warren Gallop Clarevale Emir Lame L1 0:00:00 12.2 - 36, 51 (Avg:51)
2 Frank Hughes Arkab King Heart Rate L1 0:00:00 18.3 - 39, 58 (Avg:58)
19 Bernice King Beau Nicholas Heart Rate L1 0:00:00 13.8 - 34, 60 (Avg:60)
7 Kieron Power Macquarie Gate Kadence Heart Rate L1 0:00:00 8.9 - 32, 62 (Avg:62)
29 Brian Rooney Pasadena Legionaire Heart Rate L1 0:00:00 10.6 - 39, 56 (Avg:56)
21 Jenny Sandford Ranjen Serenity Lame L1 0:00:00 11.7 - 32, 45 (Avg:45)
9 Robin Van der Wegen Ralvon Royalty Heart Rate L1 0:00:00 10.5 - 36, 59 (Avg:59)
14 Brian Sheppard Charlie Lame P/R 0:00:00 - - 29
Lightweight
2643 Sally Griffin Campari 1 6:41:00 12.0, 11.8 11.97 32, 35, 48 (Avg:41)
2644 Larissa Woolbank Arawa Ibn Bagdad 2 6:51:00 13.8, 10.0 11.68 35, 45, 51 (Avg:48)
2645 Peter John Bradford Shetan 3 7:34:00 11.7, 9.6 10.57 35, 46, 42 (Avg:44)
2646 Darren B. Bradford Amin 4 7:34:01 11.7, 9.6 10.57 34, 38, 43 (Avg:40)
2647 Kylie Rattray Endale Alia II 5 7:55:00 11.7, 8.8 10.11 38, 44, 48 (Avg:46)
2648 Jennifer Norman Blue Bead Royal Reprise 6 8:22:00 10.1, 9.0 9.56 32, 40, 42 (Avg:41)
77 David Campbell Cudglebar Kilbride Heart Rate L2 0:00:00 17.6, 14.1 - 40, 47, 62 (Avg:54)
80 David Forrester Xanadu Carla Heart Rate L1 0:00:00 13.8 - 36, 64 (Avg:64)
83 Ruth Van der Wegen Pride Lame L1 0:00:00 10.5 - 32, 43 (Avg:43)
Junior
2650 Sonia Bonham Santarabia Mazra 1 5:07:00 17.6, 14.0 15.64 38, 54, 48 (Avg:51)
2649 Aimee Campbell Cudglebar Rijmet 1 5:07:00 17.6, 14.0 15.64 30, 42, 47 (Avg:44)
2651 Amanda Harvey Windella Badi'a 3 6:07:00 13.8, 12.3 13.08 36, 35, 41 (Avg:38)
2652 Ben Watts Misty 4 6:55:00 11.8, 11.3 11.57 40, 43, 41 (Avg:42)
54 Nicholas Linton Cudglebar Shushan 5 7:10:00 11.5, 10.7 11.16 36, 44, 45 (Avg:44)
55 Thomas Palmer Tomahl Khan Heart Rate L2 0:00:00 11.7, 12.3 - 28, 53, 68 (Avg:60)